CheckWX is a tool to help pilots better visualize weather data.  It is not intended as a substitute for an official pre-flight weather briefing.

13:54:51 UTC

KELD TAF
South Arkansas Regional at Goodwin Field Airport
El Dorado, Arkansas, USA
KELD 191120Z 1912/2012 24003KT P6SM SKC FM191700 28006KT P6SM FEW250 FM192200 31005KT P6SM FEW250 FM200300 VRB03KT P6SM SKC FM201000 12003KT P6SM SKC

Nov-19@
12:00 UTC

Nov-19 @ 12:00 UTC

Nov-19@
17:00 UTC

Nov-19 @ 17:00 UTC

KELD 191120Z 1912/2012 24003KT P6SM SKC
Wind
  • 240° at 3 KTS
Cloud Levels
  • Clear skies

Nov-19@
17:00 UTC

Nov-19 @ 17:00 UTC

Nov-19@
22:00 UTC

Nov-19 @ 22:00 UTC

FM191700 28006KT P6SM FEW250

From

From Standard forecast or significant change

Wind
  • 280° at 6 KTS
Cloud Levels
  • Few at 25,000' AGL

Nov-19@
22:00 UTC

Nov-19 @ 22:00 UTC

Nov-20@
03:00 UTC

Nov-20 @ 03:00 UTC

FM192200 31005KT P6SM FEW250

From

From Standard forecast or significant change

Wind
  • 310° at 5 KTS
Cloud Levels
  • Few at 25,000' AGL

Nov-20@
03:00 UTC

Nov-20 @ 03:00 UTC

Nov-20@
10:00 UTC

Nov-20 @ 10:00 UTC

FM200300 VRB03KT P6SM SKC

From

From Standard forecast or significant change

Wind
  • Variable at 3 KTS
Cloud Levels
  • Clear skies

Nov-20@
10:00 UTC

Nov-20 @ 10:00 UTC

Nov-20@
12:00 UTC

Nov-20 @ 12:00 UTC

FM201000 12003KT P6SM SKC

From

From Standard forecast or significant change

Wind
  • 120° at 3 KTS
Cloud Levels
  • Clear skies